Time;durP1;ratioP1;P1;durP2;ratioP2;P2;SDS_P1;SDS_P2;PMS_P1;PMS_P2;Temp;Humidity;BMP_temperature;BMP_pressure;BME280_temperature;BME280_humidity;BME280_pressure;Samples;Min_cycle;Max_cycle;Signal;HPM_P1;HPM_P2
2022/12/03 00:02:15;;;;;;;;;;;-0.20;99.90;;;;;;5034255;28;20334;-56
2022/12/03 00:04:42;;;;;;;;;;;-0.20;99.90;;;;;;5034882;28;20065;-56
2022/12/03 00:07:09;;;;;;;;;;;-0.20;99.90;;;;;;5029941;28;20019;-58
2022/12/03 00:09:35;;;;;;;;;;;-0.20;99.90;;;;;;5032087;28;19959;-56
2022/12/03 00:12:02;;;;;;;;;;;-0.20;99.90;;;;;;5032149;28;19925;-57
2022/12/03 00:14:29;;;;;;;;;;;-0.10;99.90;;;;;;5029533;28;20279;-57
2022/12/03 00:16:55;;;;;;;;;;;-0.10;99.90;;;;;;5029004;28;19925;-56
2022/12/03 00:19:22;;;;;;;;;;;-0.10;99.90;;;;;;5032620;28;19935;-56
2022/12/03 00:21:49;;;;;;;;;;;-0.10;99.90;;;;;;5030423;28;19928;-58
2022/12/03 00:24:16;;;;;;;;;;;-0.10;99.90;;;;;;5030588;28;19924;-57
2022/12/03 00:26:43;;;;;;;;;;;0.00;99.90;;;;;;5032244;28;19931;-56
2022/12/03 00:29:10;;;;;;;;;;;0.00;99.90;;;;;;5037233;28;19925;-57
2022/12/03 00:31:36;;;;;;;;;;;0.00;99.90;;;;;;5029901;28;20037;-57
2022/12/03 00:34:03;;;;;;;;;;;0.00;99.90;;;;;;5043429;28;20294;-56
2022/12/03 00:36:30;;;;;;;;;;;0.00;99.90;;;;;;5028589;28;20484;-56
2022/12/03 00:38:56;;;;;;;;;;;0.00;99.90;;;;;;5034032;28;19994;-56
2022/12/03 00:41:23;;;;;;;;;;;0.10;99.90;;;;;;5031350;28;19920;-55
2022/12/03 00:43:50;;;;;;;;;;;0.00;99.90;;;;;;5029122;28;19986;-56
2022/12/03 00:46:16;;;;;;;;;;;0.10;99.90;;;;;;5030827;28;19932;-57
2022/12/03 00:48:47;;;;;;;;;;;0.10;99.90;;;;;;5030806;28;19924;-55
2022/12/03 00:51:13;;;;;;;;;;;0.10;99.90;;;;;;5033150;28;20631;-55
2022/12/03 00:53:40;;;;;;;;;;;0.10;99.90;;;;;;5033163;28;20670;-58
2022/12/03 00:56:07;;;;;;;;;;;0.10;99.90;;;;;;5037134;28;19924;-55
2022/12/03 00:58:33;;;;;;;;;;;0.10;99.90;;;;;;5034444;28;19924;-56
2022/12/03 01:01:00;;;;;;;;;;;0.20;99.90;;;;;;5035943;28;20418;-57
2022/12/03 01:03:27;;;;;;;;;;;0.20;99.90;;;;;;5034472;28;20322;-56
2022/12/03 01:05:53;;;;;;;;;;;0.20;99.90;;;;;;5030844;28;19968;-56
2022/12/03 01:08:20;;;;;;;;;;;0.20;99.90;;;;;;5031616;28;19924;-55
2022/12/03 01:10:47;;;;;;;;;;;0.20;99.90;;;;;;5035713;28;19930;-56
2022/12/03 01:13:13;;;;;;;;;;;0.20;99.90;;;;;;5036654;28;19959;-56
2022/12/03 01:15:40;;;;;;;;;;;0.30;99.90;;;;;;5034927;28;20053;-56
2022/12/03 01:18:07;;;;;;;;;;;0.30;99.90;;;;;;5035653;28;19924;-55
2022/12/03 01:20:35;;;;;;;;;;;0.30;99.90;;;;;;5035569;28;20225;-55
2022/12/03 01:23:01;;;;;;;;;;;0.30;99.90;;;;;;5033208;28;20317;-54
2022/12/03 01:25:28;;;;;;;;;;;0.30;99.90;;;;;;5041239;28;20295;-56
2022/12/03 01:27:55;;;;;;;;;;;0.30;99.90;;;;;;5032815;28;19940;-56
2022/12/03 01:30:21;;;;;;;;;;;0.40;99.90;;;;;;5034907;28;20303;-56
2022/12/03 01:32:48;;;;;;;;;;;0.40;99.90;;;;;;5034949;28;19963;-56
2022/12/03 01:35:15;;;;;;;;;;;0.40;99.90;;;;;;5033914;28;19981;-55
2022/12/03 01:37:41;;;;;;;;;;;0.40;99.90;;;;;;5035946;28;20027;-55
2022/12/03 01:40:10;;;;;;;;;;;0.40;99.90;;;;;;5036527;28;19967;-55
2022/12/03 01:42:39;;;;;;;;;;;0.40;99.90;;;;;;5032301;28;19935;-57
2022/12/03 01:45:10;;;;;;;;;;;0.40;99.90;;;;;;5036652;28;20419;-55
2022/12/03 01:47:36;;;;;;;;;;;0.40;99.90;;;;;;5033806;28;20113;-56
2022/12/03 01:50:09;;;;;;;;;;;0.40;99.90;;;;;;5032815;28;19991;-56
2022/12/03 01:52:37;;;;;;;;;;;0.40;99.90;;;;;;5016837;28;20396;-55
2022/12/03 01:55:06;;;;;;;;;;;0.40;99.90;;;;;;5035758;28;19925;-54
2022/12/03 01:57:44;;;;;;;;;;;0.30;99.90;;;;;;5037292;28;20648;-55
2022/12/03 02:00:16;;;;;;;;;;;0.30;99.90;;;;;;5031240;28;19925;-54
2022/12/03 02:02:43;;;;;;;;;;;0.30;99.90;;;;;;5032834;28;20063;-56
2022/12/03 02:05:17;;;;;;;;;;;0.30;99.90;;;;;;5033924;28;20051;-56
2022/12/03 02:07:44;;;;;;;;;;;0.30;99.90;;;;;;5032324;28;20396;-57
2022/12/03 02:10:12;;;;;;;;;;;0.30;99.90;;;;;;5032164;28;20027;-55
2022/12/03 02:12:41;;;;;;;;;;;0.30;99.90;;;;;;5032661;28;19925;-55
2022/12/03 02:15:08;;;;;;;;;;;0.30;99.90;;;;;;5034867;28;19924;-57
2022/12/03 02:17:34;;;;;;;;;;;0.40;99.90;;;;;;5033362;28;20014;-55
2022/12/03 02:20:03;;;;;;;;;;;0.40;99.90;;;;;;5035714;28;20035;-58
2022/12/03 02:22:47;;;;;;;;;;;0.40;99.90;;;;;;5032701;28;20039;-57
2022/12/03 02:25:18;;;;;;;;;;;0.40;99.90;;;;;;5037206;28;19931;-54
2022/12/03 02:27:45;;;;;;;;;;;0.40;99.90;;;;;;5032565;28;19924;-58
2022/12/03 02:30:12;;;;;;;;;;;0.40;99.90;;;;;;5033161;28;19931;-55
2022/12/03 02:32:39;;;;;;;;;;;0.40;99.90;;;;;;5032353;28;19959;-57
2022/12/03 02:35:11;;;;;;;;;;;0.40;99.90;;;;;;5034923;28;20229;-58
2022/12/03 02:37:38;;;;;;;;;;;0.40;99.90;;;;;;5034041;28;20144;-56
2022/12/03 02:40:07;;;;;;;;;;;0.40;99.90;;;;;;5036435;28;19924;-56
2022/12/03 02:42:33;;;;;;;;;;;0.40;99.90;;;;;;5031025;28;19932;-60
2022/12/03 02:45:09;;;;;;;;;;;0.50;99.90;;;;;;5034340;28;19930;-56
2022/12/03 02:47:39;;;;;;;;;;;0.50;99.90;;;;;;5033462;28;19928;-58
2022/12/03 02:50:06;;;;;;;;;;;0.50;99.90;;;;;;5032542;28;19924;-58
2022/12/03 02:52:33;;;;;;;;;;;0.50;99.90;;;;;;5031101;28;19950;-55
2022/12/03 02:55:02;;;;;;;;;;;0.50;99.90;;;;;;5033837;28;20012;-56
2022/12/03 02:57:28;;;;;;;;;;;0.50;99.90;;;;;;5034619;28;19925;-55
2022/12/03 02:59:55;;;;;;;;;;;0.50;99.90;;;;;;5034424;28;20347;-56
2022/12/03 03:02:22;;;;;;;;;;;0.40;99.90;;;;;;5032669;28;20275;-56
2022/12/03 03:04:48;;;;;;;;;;;0.50;99.90;;;;;;5032566;28;20343;-57
2022/12/03 03:07:15;;;;;;;;;;;0.40;99.90;;;;;;5032691;28;19924;-55
2022/12/03 03:09:43;;;;;;;;;;;0.40;99.90;;;;;;5029279;28;19930;-56
2022/12/03 03:12:10;;;;;;;;;;;0.40;99.90;;;;;;5034619;28;20206;-55
2022/12/03 03:14:37;;;;;;;;;;;0.40;99.90;;;;;;5034385;28;19959;-56
2022/12/03 03:17:03;;;;;;;;;;;0.40;99.90;;;;;;5041551;28;20280;-55
2022/12/03 03:19:30;;;;;;;;;;;0.40;99.90;;;;;;5031637;28;19931;-55
2022/12/03 03:21:57;;;;;;;;;;;0.40;99.90;;;;;;5032660;28;19939;-55
2022/12/03 03:24:24;;;;;;;;;;;0.40;99.90;;;;;;5030725;28;20419;-55
2022/12/03 03:26:51;;;;;;;;;;;0.40;99.90;;;;;;5029031;28;20058;-56
2022/12/03 03:29:17;;;;;;;;;;;0.40;99.90;;;;;;5029791;28;19928;-54
2022/12/03 03:31:45;;;;;;;;;;;0.40;99.90;;;;;;5033730;28;20881;-57
2022/12/03 03:34:12;;;;;;;;;;;0.40;99.90;;;;;;5034771;28;20434;-56
2022/12/03 03:36:39;;;;;;;;;;;0.40;99.90;;;;;;5033039;28;20003;-57
2022/12/03 03:39:05;;;;;;;;;;;0.40;99.90;;;;;;5030107;28;19924;-56
2022/12/03 03:41:33;;;;;;;;;;;0.40;99.90;;;;;;5033844;28;20384;-57
2022/12/03 03:44:00;;;;;;;;;;;0.40;99.90;;;;;;5031562;28;19925;-58
2022/12/03 03:46:27;;;;;;;;;;;0.40;99.90;;;;;;5031147;28;19963;-58
2022/12/03 03:48:53;;;;;;;;;;;0.40;99.90;;;;;;5033423;28;20513;-57
2022/12/03 03:51:20;;;;;;;;;;;0.40;99.90;;;;;;5029034;28;20382;-58
2022/12/03 03:53:48;;;;;;;;;;;0.50;99.90;;;;;;5032695;28;19928;-56
2022/12/03 03:56:16;;;;;;;;;;;0.50;99.90;;;;;;5032546;28;19924;-58
2022/12/03 03:58:43;;;;;;;;;;;0.50;99.90;;;;;;5034390;28;19963;-58
2022/12/03 04:01:11;;;;;;;;;;;0.50;99.90;;;;;;5031392;28;19958;-55
2022/12/03 04:03:37;;;;;;;;;;;0.50;99.90;;;;;;5030777;28;20011;-57
2022/12/03 04:06:04;;;;;;;;;;;0.50;99.90;;;;;;5031428;28;20232;-55
2022/12/03 04:08:31;;;;;;;;;;;0.50;99.90;;;;;;5029625;28;19924;-56
2022/12/03 04:13:43;;;;;;;;;;;0.50;99.90;;;;;;5030039;28;20420;-54
2022/12/03 04:16:09;;;;;;;;;;;0.50;99.90;;;;;;5029855;28;19928;-55
2022/12/03 04:18:42;;;;;;;;;;;0.50;99.90;;;;;;5033124;28;20339;-55
2022/12/03 04:24:00;;;;;;;;;;;0.50;99.90;;;;;;5032120;28;19932;-58
2022/12/03 04:29:14;;;;;;;;;;;0.40;99.90;;;;;;5033689;28;20257;-56
2022/12/03 04:37:12;;;;;;;;;;;0.40;99.90;;;;;;5028041;28;19927;-56
2022/12/03 04:39:39;;;;;;;;;;;0.40;99.90;;;;;;5030396;28;19931;-57
2022/12/03 04:42:06;;;;;;;;;;;0.40;99.90;;;;;;5030866;28;19978;-54
2022/12/03 04:44:34;;;;;;;;;;;0.40;99.90;;;;;;5031238;28;20180;-55
2022/12/03 04:47:02;;;;;;;;;;;0.40;99.90;;;;;;5031934;28;19924;-55
2022/12/03 04:49:29;;;;;;;;;;;0.40;99.90;;;;;;5031117;28;20313;-55
2022/12/03 04:51:56;;;;;;;;;;;0.40;99.90;;;;;;5031186;28;19932;-55
2022/12/03 04:54:23;;;;;;;;;;;0.40;99.90;;;;;;5034361;28;20457;-55
2022/12/03 04:56:49;;;;;;;;;;;0.40;99.90;;;;;;5029463;28;20410;-57
2022/12/03 04:59:16;;;;;;;;;;;0.40;99.90;;;;;;5029947;28;20204;-57
2022/12/03 05:01:43;;;;;;;;;;;0.40;99.90;;;;;;5032779;28;19924;-57
2022/12/03 05:04:10;;;;;;;;;;;0.40;99.90;;;;;;5030032;28;20047;-56
2022/12/03 05:06:36;;;;;;;;;;;0.40;99.90;;;;;;5031859;28;19924;-56
2022/12/03 05:09:03;;;;;;;;;;;0.40;99.90;;;;;;5030914;28;20268;-55
2022/12/03 05:11:30;;;;;;;;;;;0.40;99.90;;;;;;5030394;28;19987;-55
2022/12/03 05:13:57;;;;;;;;;;;0.50;99.90;;;;;;5031891;28;20390;-56
2022/12/03 05:16:23;;;;;;;;;;;0.50;99.90;;;;;;5030889;28;20211;-55
2022/12/03 05:18:50;;;;;;;;;;;0.50;99.90;;;;;;5031924;28;19931;-57
2022/12/03 05:21:17;;;;;;;;;;;0.50;99.90;;;;;;5028803;28;19931;-55
2022/12/03 05:23:43;;;;;;;;;;;0.50;99.90;;;;;;5019072;28;20079;-56
2022/12/03 05:26:10;;;;;;;;;;;0.50;99.90;;;;;;5029439;28;20054;-56
2022/12/03 05:28:36;;;;;;;;;;;0.50;99.90;;;;;;5031276;28;20354;-55
2022/12/03 05:31:04;;;;;;;;;;;0.50;99.90;;;;;;5028616;28;19924;-55
2022/12/03 05:33:31;;;;;;;;;;;0.50;99.90;;;;;;5030433;28;20041;-57
2022/12/03 05:35:58;;;;;;;;;;;0.50;99.90;;;;;;5029012;28;20218;-56
2022/12/03 05:38:24;;;;;;;;;;;0.50;99.90;;;;;;5031675;28;19931;-58
2022/12/03 05:40:51;;;;;;;;;;;0.50;99.90;;;;;;5035707;28;19924;-54
2022/12/03 05:43:18;;;;;;;;;;;0.50;99.90;;;;;;5036528;28;20400;-57
2022/12/03 05:45:44;;;;;;;;;;;0.50;99.90;;;;;;5035201;28;19932;-56
2022/12/03 05:48:13;;;;;;;;;;;0.50;99.90;;;;;;5030421;28;20317;-57
2022/12/03 05:50:42;;;;;;;;;;;0.50;99.90;;;;;;5035684;28;20025;-55
2022/12/03 05:53:15;;;;;;;;;;;0.50;99.90;;;;;;5034465;28;19924;-55
2022/12/03 05:55:42;;;;;;;;;;;0.50;99.90;;;;;;5032188;28;19985;-56
2022/12/03 05:58:08;;;;;;;;;;;0.50;99.90;;;;;;5032640;28;20453;-55
2022/12/03 06:00:36;;;;;;;;;;;0.50;99.90;;;;;;5034117;28;20104;-56
2022/12/03 06:03:08;;;;;;;;;;;0.50;99.90;;;;;;5035479;28;19956;-56
2022/12/03 06:05:35;;;;;;;;;;;0.50;99.90;;;;;;5030832;28;20423;-55
2022/12/03 06:08:02;;;;;;;;;;;0.50;99.90;;;;;;5031333;28;20460;-55
2022/12/03 06:10:29;;;;;;;;;;;0.50;99.90;;;;;;5033584;28;20219;-55
2022/12/03 06:12:55;;;;;;;;;;;0.50;99.90;;;;;;5032369;28;19946;-55
2022/12/03 06:15:22;;;;;;;;;;;0.50;99.90;;;;;;5037886;28;20092;-57
2022/12/03 06:17:49;;;;;;;;;;;0.50;99.90;;;;;;5034500;28;19960;-57
2022/12/03 06:20:17;;;;;;;;;;;0.50;99.90;;;;;;5031245;28;19924;-57
2022/12/03 06:22:44;;;;;;;;;;;0.50;99.90;;;;;;5034449;28;19924;-54
2022/12/03 06:25:11;;;;;;;;;;;0.50;99.90;;;;;;5031090;28;20179;-56
2022/12/03 06:27:37;;;;;;;;;;;0.50;99.90;;;;;;5034419;28;20034;-55
2022/12/03 06:30:05;;;;;;;;;;;0.50;99.90;;;;;;5033050;28;19932;-56
2022/12/03 06:32:32;;;;;;;;;;;0.50;99.90;;;;;;5032755;28;19924;-56
2022/12/03 06:34:58;;;;;;;;;;;0.50;99.90;;;;;;5032928;28;19925;-56
2022/12/03 06:37:25;;;;;;;;;;;0.50;99.90;;;;;;5034299;28;19924;-54
2022/12/03 06:39:51;;;;;;;;;;;0.50;99.90;;;;;;5031608;28;20580;-56
2022/12/03 06:42:19;;;;;;;;;;;0.50;99.90;;;;;;5033763;28;19928;-56
2022/12/03 06:44:45;;;;;;;;;;;0.50;99.90;;;;;;5033123;28;19920;-56
2022/12/03 06:47:12;;;;;;;;;;;0.50;99.90;;;;;;5033945;28;20239;-56
2022/12/03 06:49:38;;;;;;;;;;;0.50;99.90;;;;;;5023722;28;20223;-55
2022/12/03 06:52:05;;;;;;;;;;;0.50;99.90;;;;;;5033692;28;20031;-56
2022/12/03 06:54:32;;;;;;;;;;;0.50;99.90;;;;;;5039820;28;19930;-55
2022/12/03 06:56:59;;;;;;;;;;;0.50;99.90;;;;;;5033082;28;20344;-56
2022/12/03 06:59:25;;;;;;;;;;;0.50;99.90;;;;;;5033693;28;20407;-55
2022/12/03 07:01:52;;;;;;;;;;;0.40;99.90;;;;;;5033809;28;19925;-54
2022/12/03 07:04:19;;;;;;;;;;;0.50;99.90;;;;;;5030782;28;19940;-57
2022/12/03 07:06:45;;;;;;;;;;;0.50;99.90;;;;;;5031073;28;19964;-55
2022/12/03 07:09:15;;;;;;;;;;;0.50;99.90;;;;;;5031884;28;19931;-57
2022/12/03 07:11:42;;;;;;;;;;;0.50;99.90;;;;;;5033754;28;20220;-56
2022/12/03 07:14:10;;;;;;;;;;;0.50;99.90;;;;;;5033716;28;19935;-56
2022/12/03 07:16:37;;;;;;;;;;;0.50;99.90;;;;;;5032663;28;19924;-56
2022/12/03 07:19:05;;;;;;;;;;;0.50;99.90;;;;;;5034505;28;19924;-55
2022/12/03 07:21:31;;;;;;;;;;;0.50;99.90;;;;;;5031661;28;20136;-57
2022/12/03 07:23:58;;;;;;;;;;;0.50;99.90;;;;;;5028837;28;20399;-55
2022/12/03 07:26:25;;;;;;;;;;;0.50;99.90;;;;;;5033991;28;20043;-57
2022/12/03 07:28:51;;;;;;;;;;;0.50;99.90;;;;;;5029548;28;20207;-56
2022/12/03 07:31:18;;;;;;;;;;;0.40;99.90;;;;;;5033843;28;20415;-58
2022/12/03 07:33:45;;;;;;;;;;;0.50;99.90;;;;;;5038144;28;19936;-56
2022/12/03 07:36:11;;;;;;;;;;;0.50;99.90;;;;;;5031300;28;20582;-57
2022/12/03 07:38:38;;;;;;;;;;;0.40;99.90;;;;;;5032059;28;20049;-55
2022/12/03 07:41:05;;;;;;;;;;;0.40;99.90;;;;;;5032890;28;20011;-55
2022/12/03 07:43:31;;;;;;;;;;;0.40;99.90;;;;;;5031534;28;20046;-55
2022/12/03 07:45:58;;;;;;;;;;;0.40;99.90;;;;;;5034825;28;19939;-55
2022/12/03 07:48:26;;;;;;;;;;;0.40;99.90;;;;;;5031787;28;19931;-54
2022/12/03 07:50:53;;;;;;;;;;;0.40;99.90;;;;;;5034328;28;20352;-53
2022/12/03 07:53:20;;;;;;;;;;;0.40;99.90;;;;;;5033448;28;20445;-55
2022/12/03 07:55:47;;;;;;;;;;;0.40;99.90;;;;;;5032387;28;20067;-56
2022/12/03 07:58:13;;;;;;;;;;;0.40;99.90;;;;;;5028756;28;19925;-56
2022/12/03 08:00:40;;;;;;;;;;;0.40;99.90;;;;;;5030757;28;20199;-59
2022/12/03 08:03:07;;;;;;;;;;;0.40;99.90;;;;;;5038537;28;19931;-54
2022/12/03 08:05:34;;;;;;;;;;;0.40;99.90;;;;;;5031837;28;19924;-56
2022/12/03 08:08:00;;;;;;;;;;;0.40;99.90;;;;;;5031786;28;20357;-55
2022/12/03 08:10:27;;;;;;;;;;;0.50;99.90;;;;;;5030360;28;19928;-55
2022/12/03 08:12:56;;;;;;;;;;;0.50;99.90;;;;;;5031117;28;20261;-56
2022/12/03 08:15:24;;;;;;;;;;;0.50;99.90;;;;;;5032644;28;19924;-56
2022/12/03 08:17:53;;;;;;;;;;;0.40;99.90;;;;;;5031293;28;19951;-56
2022/12/03 08:20:21;;;;;;;;;;;0.50;99.90;;;;;;5032833;28;20356;-56
2022/12/03 08:23:09;;;;;;;;;;;0.50;99.90;;;;;;5023634;28;19931;-55
2022/12/03 08:25:35;;;;;;;;;;;0.50;99.90;;;;;;5031397;28;20007;-55
2022/12/03 08:28:11;;;;;;;;;;;0.50;99.90;;;;;;5028404;28;19928;-56
2022/12/03 08:30:39;;;;;;;;;;;0.50;99.90;;;;;;5033105;28;19930;-53
2022/12/03 08:33:24;;;;;;;;;;;0.50;99.90;;;;;;5031478;28;19925;-55
2022/12/03 08:35:51;;;;;;;;;;;0.40;99.90;;;;;;5030544;28;20034;-54
2022/12/03 08:38:20;;;;;;;;;;;0.50;99.90;;;;;;5030240;28;19924;-55
2022/12/03 08:40:50;;;;;;;;;;;0.50;99.90;;;;;;5031653;28;19936;-57
2022/12/03 08:43:19;;;;;;;;;;;0.50;99.90;;;;;;5032129;28;19924;-56
2022/12/03 08:45:48;;;;;;;;;;;0.50;99.90;;;;;;5033458;28;19931;-55
2022/12/03 08:48:18;;;;;;;;;;;0.50;99.90;;;;;;5031550;28;19924;-55
2022/12/03 08:50:45;;;;;;;;;;;0.50;99.90;;;;;;5033272;28;19925;-57
2022/12/03 08:53:31;;;;;;;;;;;0.50;99.90;;;;;;5032568;28;19931;-57
2022/12/03 08:55:59;;;;;;;;;;;0.50;99.90;;;;;;5031238;28;19931;-56
2022/12/03 08:58:32;;;;;;;;;;;0.50;99.90;;;;;;5031730;28;20367;-56
2022/12/03 09:01:13;;;;;;;;;;;0.50;99.90;;;;;;5032494;28;19931;-57
2022/12/03 09:03:47;;;;;;;;;;;0.50;99.90;;;;;;5033140;28;20367;-55
2022/12/03 09:06:13;;;;;;;;;;;0.50;99.90;;;;;;5029700;28;19931;-56
2022/12/03 09:08:40;;;;;;;;;;;0.60;99.90;;;;;;5031816;28;19924;-54
2022/12/03 09:11:07;;;;;;;;;;;0.60;99.90;;;;;;5032901;28;20321;-54
2022/12/03 09:13:33;;;;;;;;;;;0.60;99.90;;;;;;5032593;28;20484;-55
2022/12/03 09:16:00;;;;;;;;;;;0.60;99.90;;;;;;5033943;28;19924;-57
2022/12/03 09:18:27;;;;;;;;;;;0.60;99.90;;;;;;5036588;28;20027;-56
2022/12/03 09:20:55;;;;;;;;;;;0.60;99.90;;;;;;5048736;28;19924;-58
2022/12/03 09:23:22;;;;;;;;;;;0.60;99.90;;;;;;5036157;28;20300;-58
2022/12/03 09:25:48;;;;;;;;;;;0.60;99.90;;;;;;5033997;28;20388;-57
2022/12/03 09:28:15;;;;;;;;;;;0.60;99.90;;;;;;5034203;28;19935;-59
2022/12/03 09:30:42;;;;;;;;;;;0.50;99.90;;;;;;5033865;28;19932;-57
2022/12/03 09:33:09;;;;;;;;;;;0.50;99.90;;;;;;5034339;28;19960;-56
2022/12/03 09:35:36;;;;;;;;;;;0.60;99.90;;;;;;5036587;28;20356;-55
2022/12/03 09:38:02;;;;;;;;;;;0.60;99.90;;;;;;5032010;28;20212;-55
2022/12/03 09:40:29;;;;;;;;;;;0.60;99.90;;;;;;5033962;28;20400;-54
2022/12/03 09:42:59;;;;;;;;;;;0.70;99.90;;;;;;5035489;28;20051;-56
2022/12/03 09:45:26;;;;;;;;;;;0.70;99.90;;;;;;5032843;28;19929;-55
2022/12/03 09:47:53;;;;;;;;;;;0.70;99.90;;;;;;5035975;28;19947;-57
2022/12/03 09:50:22;;;;;;;;;;;0.70;99.90;;;;;;5035030;28;20236;-57
2022/12/03 09:52:49;;;;;;;;;;;0.70;99.90;;;;;;5035287;28;20287;-55
2022/12/03 09:55:19;;;;;;;;;;;0.70;99.90;;;;;;5031815;28;20730;-54
2022/12/03 09:57:46;;;;;;;;;;;0.70;99.90;;;;;;5034520;28;19924;-56
2022/12/03 10:00:17;;;;;;;;;;;0.70;99.90;;;;;;5042314;28;20002;-56
2022/12/03 10:02:45;;;;;;;;;;;0.70;99.90;;;;;;5035498;28;19924;-55
2022/12/03 10:05:12;;;;;;;;;;;0.80;99.90;;;;;;5050708;28;19982;-56
2022/12/03 10:07:39;;;;;;;;;;;0.70;99.90;;;;;;5041944;28;20337;-59
2022/12/03 10:10:12;;;;;;;;;;;0.70;99.90;;;;;;5035718;28;20570;-55
2022/12/03 10:12:39;;;;;;;;;;;0.70;99.90;;;;;;5037143;28;20028;-57
2022/12/03 10:15:08;;;;;;;;;;;0.70;99.90;;;;;;5036779;28;20386;-56
2022/12/03 10:17:35;;;;;;;;;;;0.70;99.90;;;;;;5032718;28;19925;-55
2022/12/03 10:20:02;;;;;;;;;;;0.70;99.90;;;;;;5034800;28;19928;-54
2022/12/03 10:22:35;;;;;;;;;;;0.70;99.90;;;;;;5035797;28;19925;-57
2022/12/03 10:25:12;;;;;;;;;;;0.70;99.90;;;;;;5034620;28;20005;-56
2022/12/03 10:27:39;;;;;;;;;;;0.70;99.90;;;;;;5031351;28;19924;-57
2022/12/03 10:30:18;;;;;;;;;;;0.70;99.90;;;;;;5034793;28;20163;-57
2022/12/03 10:32:49;;;;;;;;;;;0.70;99.90;;;;;;5032164;28;20329;-55
2022/12/03 10:35:18;;;;;;;;;;;0.70;99.90;;;;;;5035083;28;19935;-56
2022/12/03 10:38:03;;;;;;;;;;;0.70;99.90;;;;;;5034359;28;19920;-57
2022/12/03 10:40:34;;;;;;;;;;;0.70;99.90;;;;;;5028934;28;20436;-57
2022/12/03 10:43:13;;;;;;;;;;;0.60;99.90;;;;;;5035484;28;19964;-57
2022/12/03 10:45:39;;;;;;;;;;;0.60;99.90;;;;;;5031407;28;19931;-57
2022/12/03 10:48:20;;;;;;;;;;;0.70;99.90;;;;;;5040250;28;20415;-56
2022/12/03 10:50:48;;;;;;;;;;;0.70;99.90;;;;;;5033033;28;20277;-57
2022/12/03 10:53:15;;;;;;;;;;;0.70;99.90;;;;;;5033946;28;20549;-57
2022/12/03 10:55:43;;;;;;;;;;;0.70;99.90;;;;;;5035004;28;20154;-57
2022/12/03 10:58:15;;;;;;;;;;;0.70;99.90;;;;;;5035159;28;19924;-56
2022/12/03 11:00:42;;;;;;;;;;;0.60;99.90;;;;;;5034256;28;20170;-59
2022/12/03 11:03:29;;;;;;;;;;;0.60;99.90;;;;;;5031923;28;19932;-56
2022/12/03 11:05:56;;;;;;;;;;;0.60;99.90;;;;;;5031644;28;19928;-57
2022/12/03 11:08:23;;;;;;;;;;;0.60;99.90;;;;;;5031669;28;20468;-57
2022/12/03 11:10:59;;;;;;;;;;;0.60;99.90;;;;;;5031605;28;20752;-56
2022/12/03 11:13:32;;;;;;;;;;;0.60;99.90;;;;;;5033198;28;19929;-57
2022/12/03 11:16:08;;;;;;;;;;;0.70;99.90;;;;;;5030226;28;19924;-58
2022/12/03 11:18:34;;;;;;;;;;;0.60;99.90;;;;;;5030487;28;20082;-57
2022/12/03 11:21:14;;;;;;;;;;;0.60;99.90;;;;;;5031561;28;20038;-57
2022/12/03 11:23:43;;;;;;;;;;;0.70;99.90;;;;;;5031985;28;20394;-58
2022/12/03 11:26:10;;;;;;;;;;;0.70;99.90;;;;;;5035934;28;19924;-57
2022/12/03 11:28:54;;;;;;;;;;;0.70;99.90;;;;;;5032573;28;19921;-56
2022/12/03 11:31:36;;;;;;;;;;;0.60;99.90;;;;;;5035206;28;20290;-57
2022/12/03 11:34:15;;;;;;;;;;;0.60;99.90;;;;;;5032013;28;19924;-56
2022/12/03 11:37:00;;;;;;;;;;;0.70;99.90;;;;;;5045994;28;19924;-55
2022/12/03 11:39:46;;;;;;;;;;;0.70;99.90;;;;;;5037369;28;19924;-56
2022/12/03 11:42:25;;;;;;;;;;;0.70;99.90;;;;;;5030358;28;20489;-56
2022/12/03 11:45:01;;;;;;;;;;;0.70;99.90;;;;;;5031673;28;20540;-54
2022/12/03 11:47:29;;;;;;;;;;;0.80;99.90;;;;;;5033227;28;19970;-56
2022/12/03 11:49:56;;;;;;;;;;;0.80;99.90;;;;;;5032755;28;20256;-57
2022/12/03 11:52:24;;;;;;;;;;;0.80;99.90;;;;;;5031559;28;19991;-56
2022/12/03 11:54:53;;;;;;;;;;;0.80;99.90;;;;;;5032459;28;19924;-54
2022/12/03 11:57:25;;;;;;;;;;;0.80;99.90;;;;;;5029949;28;19924;-53
2022/12/03 12:00:18;;;;;;;;;;;0.80;99.90;;;;;;5031720;28;20361;-53
2022/12/03 12:02:45;;;;;;;;;;;0.80;99.90;;;;;;5034955;28;19956;-53
2022/12/03 12:05:16;;;;;;;;;;;0.80;99.90;;;;;;5031105;28;19924;-55
2022/12/03 12:07:47;;;;;;;;;;;0.80;99.90;;;;;;5031530;28;19924;-53
2022/12/03 12:10:43;;;;;;;;;;;0.80;99.90;;;;;;5032428;28;19925;-53
2022/12/03 12:13:24;;;;;;;;;;;0.80;99.90;;;;;;5047335;28;19930;-54
2022/12/03 12:15:51;;;;;;;;;;;0.90;99.90;;;;;;5032313;28;20335;-55
2022/12/03 12:18:36;;;;;;;;;;;0.90;99.90;;;;;;5030603;28;19925;-57
2022/12/03 12:21:21;;;;;;;;;;;0.90;99.90;;;;;;5030710;28;20329;-57
2022/12/03 12:23:48;;;;;;;;;;;0.90;99.90;;;;;;5045615;28;19950;-60
2022/12/03 12:26:15;;;;;;;;;;;0.90;99.90;;;;;;5029153;28;20298;-55
2022/12/03 12:28:41;;;;;;;;;;;0.90;99.90;;;;;;5033891;28;19924;-54
2022/12/03 12:31:09;;;;;;;;;;;0.90;99.90;;;;;;5032276;28;20384;-55
2022/12/03 12:33:36;;;;;;;;;;;0.90;99.90;;;;;;5029676;28;20454;-55
2022/12/03 12:36:09;;;;;;;;;;;0.90;99.90;;;;;;5028758;28;20488;-56
2022/12/03 12:38:35;;;;;;;;;;;0.90;99.90;;;;;;5032114;28;19924;-57
2022/12/03 12:41:06;;;;;;;;;;;1.00;99.90;;;;;;5032361;28;20362;-55
2022/12/03 12:43:34;;;;;;;;;;;1.00;99.90;;;;;;5031546;28;20042;-56
2022/12/03 12:46:07;;;;;;;;;;;1.00;99.90;;;;;;5032220;28;19924;-54
2022/12/03 12:48:53;;;;;;;;;;;1.00;99.90;;;;;;5036037;28;19924;-56
2022/12/03 12:51:25;;;;;;;;;;;1.00;99.90;;;;;;5036511;28;20370;-55
2022/12/03 12:53:52;;;;;;;;;;;1.00;99.90;;;;;;5036234;28;19924;-54
2022/12/03 12:56:24;;;;;;;;;;;1.00;99.90;;;;;;5033114;28;19928;-54
2022/12/03 12:58:51;;;;;;;;;;;1.00;99.90;;;;;;5037163;28;20452;-55
2022/12/03 13:01:25;;;;;;;;;;;1.00;99.90;;;;;;5035841;28;20240;-54
2022/12/03 13:03:52;;;;;;;;;;;1.00;99.90;;;;;;5035841;28;20695;-54
2022/12/03 13:06:26;;;;;;;;;;;1.00;99.90;;;;;;5036219;28;19932;-55
2022/12/03 13:08:53;;;;;;;;;;;1.00;99.90;;;;;;5036254;28;20385;-56
2022/12/03 13:11:29;;;;;;;;;;;1.10;99.90;;;;;;5036978;28;20225;-54
2022/12/03 13:13:55;;;;;;;;;;;1.00;99.90;;;;;;5037676;28;19924;-56
2022/12/03 13:16:27;;;;;;;;;;;1.10;99.90;;;;;;5036184;28;20651;-61
2022/12/03 13:18:55;;;;;;;;;;;1.10;99.90;;;;;;5039300;28;19978;-62
2022/12/03 13:21:23;;;;;;;;;;;1.10;99.90;;;;;;5034618;28;20114;-62
2022/12/03 13:23:51;;;;;;;;;;;1.10;99.90;;;;;;5036387;28;20080;-64
2022/12/03 13:26:21;;;;;;;;;;;1.10;99.90;;;;;;5033498;28;19928;-63
2022/12/03 13:29:05;;;;;;;;;;;1.10;99.90;;;;;;5034558;28;20437;-55
2022/12/03 13:31:33;;;;;;;;;;;1.10;99.90;;;;;;5036168;28;19924;-56
2022/12/03 13:34:43;;;;;;;;;;;1.10;99.90;;;;;;5036393;28;20400;-55
2022/12/03 13:37:15;;;;;;;;;;;1.10;99.90;;;;;;5004022;28;19925;-56
2022/12/03 13:39:44;;;;;;;;;;;1.10;99.90;;;;;;5003875;28;19925;-58
2022/12/03 13:45:24;;;;;;;;;;;1.10;99.90;;;;;;5036017;28;19982;-55
2022/12/03 13:47:53;;;;;;;;;;;1.10;99.90;;;;;;5038373;28;19928;-56
2022/12/03 13:50:20;;;;;;;;;;;1.10;99.90;;;;;;5043904;28;20410;-58
2022/12/03 13:52:47;;;;;;;;;;;1.10;99.90;;;;;;5033229;28;19931;-55
2022/12/03 13:55:19;;;;;;;;;;;1.10;99.90;;;;;;5037041;28;19924;-57
2022/12/03 13:57:46;;;;;;;;;;;1.10;99.90;;;;;;5031994;28;19924;-57
2022/12/03 14:00:13;;;;;;;;;;;1.10;99.90;;;;;;5033121;28;19930;-57
2022/12/03 14:02:40;;;;;;;;;;;1.10;99.90;;;;;;5032541;28;20011;-56
2022/12/03 14:05:07;;;;;;;;;;;1.10;99.90;;;;;;5033383;28;20146;-56
2022/12/03 14:07:33;;;;;;;;;;;1.10;99.90;;;;;;5041767;28;20134;-56
2022/12/03 14:10:00;;;;;;;;;;;1.10;99.90;;;;;;5033820;28;20303;-56
2022/12/03 14:12:29;;;;;;;;;;;1.10;99.90;;;;;;5034122;28;20683;-55
2022/12/03 14:14:56;;;;;;;;;;;1.10;99.90;;;;;;5035284;28;19925;-54
2022/12/03 14:17:23;;;;;;;;;;;1.10;99.90;;;;;;5040394;28;20570;-56
2022/12/03 14:19:49;;;;;;;;;;;1.10;99.90;;;;;;5033567;28;19935;-56
2022/12/03 14:22:18;;;;;;;;;;;1.20;99.90;;;;;;5036937;28;20383;-56
2022/12/03 14:24:44;;;;;;;;;;;1.20;99.90;;;;;;5032213;28;19936;-57
2022/12/03 14:27:11;;;;;;;;;;;1.20;99.90;;;;;;5034025;28;20369;-55
2022/12/03 14:29:38;;;;;;;;;;;1.10;99.90;;;;;;5034409;28;19924;-56
2022/12/03 14:32:04;;;;;;;;;;;1.10;99.90;;;;;;5033222;28;19925;-57
2022/12/03 14:34:31;;;;;;;;;;;1.10;99.90;;;;;;5032126;28;20524;-56
2022/12/03 14:36:58;;;;;;;;;;;1.20;99.90;;;;;;5032375;28;20370;-55
2022/12/03 14:39:24;;;;;;;;;;;1.20;99.90;;;;;;5033243;28;20207;-54
2022/12/03 14:44:36;;;;;;;;;;;1.20;99.90;;;;;;5030788;28;19924;-56
2022/12/03 14:47:03;;;;;;;;;;;1.20;99.90;;;;;;5031924;28;20119;-57
2022/12/03 14:49:30;;;;;;;;;;;1.20;99.90;;;;;;5032473;28;19924;-54
2022/12/03 14:51:58;;;;;;;;;;;1.20;99.90;;;;;;5033693;28;19947;-56
2022/12/03 14:54:24;;;;;;;;;;;1.20;99.90;;;;;;5034569;28;19939;-57
2022/12/03 14:56:51;;;;;;;;;;;1.20;99.90;;;;;;5034478;28;20331;-54
2022/12/03 14:59:18;;;;;;;;;;;1.20;99.90;;;;;;5033285;28;20229;-55